Main page
METAR-TAF:

METAR-TAF

Airports :

Évreux-Fauville Air Base

Évreux, France

latitude: 49-01N, longitude: 001-13E, elevation: 141 m

Current weather observation

The report was made 24 minutes ago, at 23:00 UTC
Wind 5 kt from the North/Northeast
Temperature 15°C
Humidity 59%
Pressure 999 hPa
Visibility 10 km or more
no clouds below 1500 m and no cumulonimbus

METAR: LFOE 222300Z AUTO 03005KT CAVOK 15/07 Q0999 NOSIG

Time: 01:24 (23:24 UTC)

Forecast

The report was made 3 hours and 24 minutes ago, at 20:00 UTC
Forecast valid from 22 at 21 UTC to 23 at 21 UTC
Wind 5 kt from the North
Visibility 10 km or more
no clouds below 1500 m and no cumulonimbus
Becoming
from 23 at 18 UTC to 23 at 21 UTC
Wind 10 kt from the South with gusts up to 25 kt
Visibility: 4000 m
Scattered clouds at a height of 3000 ft
Broken clouds at a height of 5000 ft, Cumulonimbus.
rain showers

TAF: LFOE 222000Z 2221/2321 01005KT CAVOK BECMG 2318/2321 19010G25KT 4000 SHRA SCT030 BKN050CB

Weather observations and forecasts of more than 4000 airports (METAR and TAF reports).

The available stations are represented by yellow and red dots on the map.

Hover mouse over dot to see the name of the station.

Then click to see weather observations and forecasts.

To change the map : click on the green buttons with a black cross to zoom in, on the green button with a dash to zoom out, or on the green arrows for adjacent maps.


METAR-TAF: